Rouyn, Canada
Current Conditions -  °F | °C
As of 1:00 AM on Wednesday 22 Oct 2014 (Local Time) from CYUY Reporting Station
Clear Clear  
Wind Chill: 25°   Ceiling: Unl
Heat Index: 25°   Visibility: 15mi
Dew Point: 23°   Wind: 2mph
Humidity: 93%   Direction: 40°NE
Pressure: 30.35"   Gusts: NA
Location:  48.23°N, 79.03°W
Report Text: CYUY 220500Z 04002KT 15SM SKC M04/M05 A3035 RMK SLP294
Loading
Personal Weather Stations






























Interactive Weather Map
Tropical Storm Tracking
New forecast layout! Learn more

10-Day Weather Forecast

Advertisements
Track Severe Weather on mobile